createdAt,value
2022-11-07T00:01:40.649Z,100608.38
2022-11-07T00:04:08.164Z,100624.81
2022-11-07T00:06:37.383Z,100618.75
2022-11-07T00:09:05.273Z,100625.72
2022-11-07T00:11:32.849Z,100624.84
2022-11-07T00:14:00.319Z,100631.75
2022-11-07T00:16:29.273Z,100632.63
2022-11-07T00:18:56.860Z,100639.56
2022-11-07T00:21:24.364Z,100632.66
2022-11-07T00:23:51.841Z,100633.53
2022-11-07T00:26:19.314Z,100641.34
2022-11-07T00:28:46.854Z,100643.06
2022-11-07T00:31:15.943Z,100638.72
2022-11-07T00:33:44.316Z,100641.25
2022-11-07T00:36:21.515Z,100648.19
2022-11-07T00:38:49.213Z,100645.59
2022-11-07T00:41:17.255Z,100643.88
2022-11-07T00:43:44.786Z,100643.03
2022-11-07T00:46:14.254Z,100637.03
2022-11-07T00:48:42.069Z,100641.34
2022-11-07T00:51:18.234Z,100646.56
2022-11-07T00:53:46.569Z,100646.63
2022-11-07T00:56:16.384Z,100654.38
2022-11-07T00:58:44.329Z,100650.03
2022-11-07T01:01:21.397Z,100653.53
2022-11-07T01:04:07.613Z,100661.34
2022-11-07T01:06:38.101Z,100665.69
2022-11-07T01:09:13.741Z,100679.53
2022-11-07T01:11:41.817Z,100662.25
2022-11-07T01:14:11.492Z,100666.53
2022-11-07T01:16:39.209Z,100668.28
2022-11-07T01:19:07.914Z,100666.53
2022-11-07T01:21:35.635Z,100672.63
2022-11-07T01:24:03.581Z,100678.66
2022-11-07T01:26:31.116Z,100695.97
2022-11-07T01:28:58.593Z,100691.66
2022-11-07T01:31:26.260Z,100680.38
2022-11-07T01:33:53.763Z,100688.16
2022-11-07T01:36:21.255Z,100694.25
2022-11-07T01:38:49.539Z,100706.38
2022-11-07T01:41:24.670Z,100705.47
2022-11-07T01:43:52.064Z,100685.56
2022-11-07T01:46:21.065Z,100690.78
2022-11-07T01:49:04.691Z,100695.09
2022-11-07T01:51:36.318Z,100704.66
2022-11-07T01:54:05.966Z,100698.56
2022-11-07T01:56:36.656Z,100696.78
2022-11-07T01:59:05.063Z,100698.53
2022-11-07T02:01:32.776Z,100705.44
2022-11-07T02:04:01.401Z,100696.78
2022-11-07T02:06:51.975Z,100703.75
2022-11-07T02:09:19.544Z,100709.84
2022-11-07T02:11:47.062Z,100702.06
2022-11-07T02:14:18.942Z,100699.47
2022-11-07T02:16:48.282Z,100707.25
2022-11-07T02:19:39.032Z,100707.28
2022-11-07T02:22:24.401Z,100695.16
2022-11-07T02:24:56.405Z,100707.34
2022-11-07T02:27:28.212Z,100696.09
2022-11-07T02:30:03.755Z,100703.03
2022-11-07T02:32:31.676Z,100700.44
2022-11-07T02:35:05.785Z,100695.28
2022-11-07T02:37:36.713Z,100703.06
2022-11-07T02:40:08.808Z,100712.59
2022-11-07T02:42:44.266Z,100722.97
2022-11-07T02:45:23.353Z,100712.56
2022-11-07T02:47:50.860Z,100707.38
2022-11-07T02:50:18.921Z,100710.84
2022-11-07T02:52:46.402Z,100716.03
2022-11-07T02:55:14.971Z,100711.72
2022-11-07T02:57:42.829Z,100719.53
2022-11-07T03:00:12.981Z,100703.94
2022-11-07T03:02:46.754Z,100712.59
2022-11-07T03:05:16.146Z,100705.66
2022-11-07T03:07:45.285Z,100713.47
2022-11-07T03:10:14.161Z,100715.16
2022-11-07T03:12:41.729Z,100724.69
2022-11-07T03:15:11.553Z,100730.75
2022-11-07T03:17:39.094Z,100725.50
2022-11-07T03:20:07.389Z,100726.38
2022-11-07T03:22:34.981Z,100727.25
2022-11-07T03:25:02.476Z,100727.25
2022-11-07T03:27:29.934Z,100725.50
2022-11-07T03:29:57.392Z,100729.84
2022-11-07T03:32:24.933Z,100730.69
2022-11-07T03:34:52.369Z,100736.75
2022-11-07T03:37:19.916Z,100738.47
2022-11-07T03:39:47.350Z,100731.56
2022-11-07T03:42:14.827Z,100733.28
2022-11-07T03:44:42.280Z,100735.88
2022-11-07T03:47:09.735Z,100729.03
2022-11-07T03:49:37.216Z,100726.44
2022-11-07T03:52:04.824Z,100719.47
2022-11-07T03:54:32.284Z,100724.69
2022-11-07T03:56:59.954Z,100722.97
2022-11-07T03:59:27.463Z,100716.06
2022-11-07T04:01:55.063Z,100729.88
2022-11-07T04:04:22.781Z,100726.44
2022-11-07T04:06:50.233Z,100728.16
2022-11-07T04:09:17.723Z,100726.38
2022-11-07T04:12:02.733Z,100728.13
2022-11-07T04:14:47.605Z,100729.84
2022-11-07T04:17:21.205Z,100725.50
2022-11-07T04:19:50.352Z,100715.09
2022-11-07T04:22:18.963Z,100721.16
2022-11-07T04:24:46.760Z,100726.34
2022-11-07T04:27:33.702Z,100724.59
2022-11-07T04:30:19.055Z,100719.38
2022-11-07T04:32:52.834Z,100724.56
2022-11-07T04:35:22.544Z,100727.16
2022-11-07T04:37:50.619Z,100716.75
2022-11-07T04:40:19.714Z,100717.66
2022-11-07T04:42:48.423Z,100714.16
2022-11-07T04:45:16.611Z,100726.28
2022-11-07T04:47:44.528Z,100724.56
2022-11-07T04:50:15.692Z,100729.75
2022-11-07T04:52:43.662Z,100724.56
2022-11-07T04:55:20.005Z,100732.34
2022-11-07T04:57:47.449Z,100730.59
2022-11-07T05:00:15.585Z,100721.06
2022-11-07T05:02:43.053Z,100720.19
2022-11-07T05:05:11.529Z,100727.97
2022-11-07T05:07:39.652Z,100734.91
2022-11-07T05:10:12.210Z,100734.88
2022-11-07T05:12:40.015Z,100742.66
2022-11-07T05:15:08.586Z,100741.78
2022-11-07T05:17:36.165Z,100698.56
2022-11-07T05:20:04.212Z,100727.94
2022-11-07T05:22:53.617Z,100733.09
2022-11-07T05:25:23.586Z,100727.03
2022-11-07T05:27:56.409Z,100730.47
2022-11-07T05:30:23.983Z,100739.19
2022-11-07T05:32:51.455Z,100724.47
2022-11-07T05:35:18.986Z,100725.31
2022-11-07T05:37:47.304Z,100745.22
2022-11-07T05:40:14.996Z,100743.47
2022-11-07T05:42:42.540Z,100732.19
2022-11-07T05:45:10.604Z,100744.38
2022-11-07T05:47:38.091Z,100730.47
2022-11-07T05:50:05.951Z,100743.47
2022-11-07T05:52:33.962Z,100740.88
2022-11-07T05:55:01.457Z,100752.13
2022-11-07T05:57:30.987Z,100748.69
2022-11-07T05:59:58.500Z,100757.31
2022-11-07T06:02:26.029Z,100757.31
2022-11-07T06:04:53.630Z,100750.38
2022-11-07T06:07:21.082Z,100748.63
2022-11-07T06:09:48.528Z,100738.19
2022-11-07T06:12:16.141Z,100750.31
2022-11-07T06:14:43.653Z,100749.41
2022-11-07T06:17:11.236Z,100741.59
2022-11-07T06:19:38.774Z,100757.19
2022-11-07T06:22:06.226Z,100742.47
2022-11-07T06:24:33.710Z,100742.47
2022-11-07T06:27:01.325Z,100744.16
2022-11-07T06:29:28.876Z,100739.78
2022-11-07T06:31:56.414Z,100754.50
2022-11-07T06:34:24.084Z,100754.50
2022-11-07T06:37:02.686Z,100757.94
2022-11-07T06:39:30.828Z,100758.75
2022-11-07T06:41:58.367Z,100776.09
2022-11-07T06:44:25.865Z,100759.56
2022-11-07T06:46:53.337Z,100755.25
2022-11-07T06:49:20.896Z,100760.41
2022-11-07T06:51:48.319Z,100763.88
2022-11-07T06:54:16.006Z,100759.53
2022-11-07T06:56:43.509Z,100773.34
2022-11-07T06:59:11.182Z,100760.41
2022-11-07T07:01:38.911Z,100770.72
2022-11-07T07:04:06.589Z,100760.34
2022-11-07T07:06:34.098Z,100777.66
2022-11-07T07:09:01.753Z,100775.91
2022-11-07T07:11:29.300Z,100775.91
2022-11-07T07:14:02.021Z,100779.41
2022-11-07T07:16:29.924Z,100788.00
2022-11-07T07:18:57.665Z,100782.81
2022-11-07T07:21:26.025Z,100793.22
2022-11-07T07:23:53.832Z,100778.44
2022-11-07T07:26:21.318Z,100789.72
2022-11-07T07:28:49.422Z,100793.13
2022-11-07T07:31:16.849Z,100787.91
2022-11-07T07:33:45.789Z,100793.91
2022-11-07T07:36:19.205Z,100791.31
2022-11-07T07:38:48.753Z,100806.91
2022-11-07T07:41:17.278Z,100805.16
2022-11-07T07:43:45.739Z,100806.03
2022-11-07T07:46:20.448Z,100819.03
2022-11-07T07:48:47.934Z,100800.72
2022-11-07T07:51:15.744Z,100813.78
2022-11-07T07:53:43.269Z,100812.88
2022-11-07T07:56:10.957Z,100821.50
2022-11-07T07:58:38.465Z,100821.53
2022-11-07T08:01:10.335Z,100824.09
2022-11-07T08:04:00.227Z,100834.47
2022-11-07T08:06:26.651Z,100822.25
2022-11-07T08:08:54.132Z,100835.25
2022-11-07T08:11:24.384Z,100835.13
2022-11-07T08:13:57.135Z,100829.88
2022-11-07T08:16:29.642Z,100831.50
2022-11-07T08:18:57.314Z,100845.22
2022-11-07T08:21:24.816Z,100830.56
2022-11-07T08:23:53.466Z,100848.69
2022-11-07T08:26:21.222Z,100845.22
2022-11-07T08:28:49.565Z,100858.22
2022-11-07T08:31:17.152Z,100863.41
2022-11-07T08:33:44.717Z,100858.22
2022-11-07T08:36:12.269Z,100857.38
2022-11-07T08:38:39.705Z,100875.63
2022-11-07T08:41:07.377Z,100873.91
2022-11-07T08:43:34.840Z,100873.81
2022-11-07T08:46:02.385Z,100863.47
2022-11-07T08:48:29.884Z,100874.72
2022-11-07T08:50:59.389Z,100879.03
2022-11-07T08:53:27.867Z,100882.53
2022-11-07T08:56:05.952Z,100874.72
2022-11-07T08:58:34.297Z,100873.88
2022-11-07T09:01:03.067Z,100880.63
2022-11-07T09:03:45.182Z,100870.28
2022-11-07T09:06:15.260Z,100876.38
2022-11-07T09:08:42.718Z,100880.59
2022-11-07T09:11:10.528Z,100892.75
2022-11-07T09:13:38.099Z,100877.09
2022-11-07T09:16:06.208Z,100877.06
2022-11-07T09:18:34.590Z,100880.50
2022-11-07T09:21:02.741Z,100892.63
2022-11-07T09:23:30.339Z,100896.09
2022-11-07T09:26:01.141Z,100893.44
2022-11-07T09:28:29.445Z,100903.78
2022-11-07T09:31:01.276Z,100892.53
2022-11-07T09:33:29.157Z,100887.34
2022-11-07T09:36:00.660Z,100904.56
2022-11-07T09:38:28.342Z,100901.97
2022-11-07T09:41:18.725Z,100903.63
2022-11-07T09:44:14.172Z,100900.09
2022-11-07T09:47:02.429Z,100907.16
2022-11-07T09:49:39.716Z,100894.09
2022-11-07T09:52:32.590Z,100914.84
2022-11-07T09:55:24.261Z,100909.72
2022-11-07T09:57:56.456Z,100913.16
2022-11-07T10:00:24.439Z,100918.31
2022-11-07T10:02:55.911Z,100921.06
2022-11-07T10:05:47.368Z,100930.47
2022-11-07T10:08:23.985Z,100923.50
2022-11-07T10:11:01.332Z,100933.81
2022-11-07T10:13:58.585Z,100937.28
2022-11-07T10:16:47.689Z,100940.88
2022-11-07T10:19:33.571Z,100946.09
2022-11-07T10:22:06.984Z,100946.94
2022-11-07T10:24:49.380Z,100942.47
2022-11-07T10:27:16.877Z,100945.94
2022-11-07T10:29:48.877Z,100946.91
2022-11-07T10:32:45.690Z,100940.09
2022-11-07T10:35:28.440Z,100950.41
2022-11-07T10:37:57.849Z,100947.00
2022-11-07T10:40:29.190Z,100946.88
2022-11-07T10:42:57.035Z,100939.88
2022-11-07T10:45:26.451Z,100949.06
2022-11-07T10:48:05.489Z,100942.13
2022-11-07T10:50:33.376Z,100941.03
2022-11-07T10:53:09.515Z,100948.03
2022-11-07T10:55:45.592Z,100936.47
2022-11-07T10:58:29.007Z,100940.69
2022-11-07T11:01:05.927Z,100941.69
2022-11-07T11:03:49.588Z,100950.31
2022-11-07T11:06:19.816Z,100947.84
2022-11-07T11:08:49.509Z,100941.91
2022-11-07T11:11:22.701Z,100948.06
2022-11-07T11:13:50.864Z,100948.13
2022-11-07T11:16:30.441Z,100948.09
2022-11-07T11:19:01.110Z,100942.09
2022-11-07T11:21:41.223Z,100949.00
2022-11-07T11:24:30.632Z,100942.94
2022-11-07T11:27:24.702Z,100957.66
2022-11-07T11:29:59.826Z,100938.59
2022-11-07T11:32:37.660Z,100943.84
2022-11-07T11:35:21.029Z,100946.47
2022-11-07T11:37:57.953Z,100944.78
2022-11-07T11:40:26.380Z,100944.63
2022-11-07T11:42:58.161Z,100940.25
2022-11-07T11:45:46.918Z,100931.69
2022-11-07T11:48:40.576Z,100945.66
2022-11-07T11:51:14.973Z,100952.53
2022-11-07T11:53:42.637Z,100944.69
2022-11-07T11:56:26.549Z,100943.81
2022-11-07T11:59:18.789Z,100941.13
2022-11-07T12:01:58.050Z,100940.09
2022-11-07T12:04:31.461Z,100945.31
2022-11-07T12:07:17.641Z,100946.91
2022-11-07T12:10:06.817Z,100949.56
2022-11-07T12:13:13.610Z,100941.78
2022-11-07T12:15:47.414Z,100943.44
2022-11-07T12:18:23.776Z,100950.44
2022-11-07T12:21:19.508Z,100932.16
2022-11-07T12:24:10.583Z,100936.47
2022-11-07T12:26:45.868Z,100941.53
2022-11-07T12:29:28.890Z,100934.56
2022-11-07T12:32:10.537Z,100941.47
2022-11-07T12:34:50.117Z,100941.28
2022-11-07T12:37:39.575Z,100937.84
2022-11-07T12:40:44.364Z,100933.44
2022-11-07T12:43:26.920Z,100930.59
2022-11-07T12:46:15.545Z,100929.63
2022-11-07T12:48:59.122Z,100921.75
2022-11-07T12:51:57.633Z,100935.72
2022-11-07T12:54:37.216Z,100916.66
2022-11-07T12:57:13.876Z,100923.72
2022-11-07T12:59:46.155Z,100921.81
2022-11-07T13:02:32.012Z,100915.75
2022-11-07T13:05:09.502Z,100924.59
2022-11-07T13:07:58.290Z,100928.25
2022-11-07T13:10:47.117Z,100925.78
2022-11-07T13:13:33.506Z,100915.38
2022-11-07T13:16:24.319Z,100920.63
2022-11-07T13:18:51.832Z,100925.97
2022-11-07T13:21:19.526Z,100906.03
2022-11-07T13:23:48.125Z,100915.56
2022-11-07T13:26:45.163Z,100930.47
2022-11-07T13:29:04.551Z,100921.69
2022-11-07T13:31:38.350Z,100934.75
2022-11-07T13:34:20.713Z,100921.66
2022-11-07T13:36:49.801Z,100926.81
2022-11-07T13:39:18.329Z,100924.25
2022-11-07T13:41:47.161Z,100917.22
2022-11-07T13:44:32.502Z,100910.16
2022-11-07T13:47:04.314Z,100920.63
2022-11-07T13:49:44.841Z,100913.56
2022-11-07T13:52:23.432Z,100926.59
2022-11-07T13:55:00.029Z,100906.53
2022-11-07T13:57:35.225Z,100912.66
2022-11-07T14:00:05.752Z,100905.66
2022-11-07T14:02:35.621Z,100914.31
2022-11-07T14:05:22.315Z,100902.97
2022-11-07T14:08:00.830Z,100902.84
2022-11-07T14:10:43.044Z,100904.41
2022-11-07T14:13:14.882Z,100902.69
2022-11-07T14:15:48.748Z,100905.16
2022-11-07T14:18:18.828Z,100901.72
2022-11-07T14:20:52.775Z,100904.16
2022-11-07T14:23:27.463Z,100906.84
2022-11-07T14:26:04.164Z,100901.72
2022-11-07T14:28:37.251Z,100911.34
2022-11-07T14:31:16.928Z,100912.16
2022-11-07T14:33:55.945Z,100910.56
2022-11-07T14:36:24.167Z,100908.06
2022-11-07T14:38:54.848Z,100907.22
2022-11-07T14:41:23.770Z,100919.59
2022-11-07T14:43:52.459Z,100920.47
2022-11-07T14:46:24.284Z,100916.19
2022-11-07T14:48:53.554Z,100925.78
2022-11-07T14:51:26.621Z,100925.00
2022-11-07T14:54:10.290Z,100917.19
2022-11-07T14:56:42.409Z,100920.78
2022-11-07T14:59:15.159Z,100924.28
2022-11-07T15:01:56.011Z,100925.16
2022-11-07T15:04:36.805Z,100915.63
2022-11-07T15:07:35.259Z,100923.47
2022-11-07T15:10:24.874Z,100920.97
2022-11-07T15:13:07.276Z,100915.94
2022-11-07T15:15:37.067Z,100921.06
2022-11-07T15:18:07.255Z,100924.63
2022-11-07T15:20:38.136Z,100917.72
2022-11-07T15:23:14.704Z,100926.47
2022-11-07T15:25:57.047Z,100931.78
2022-11-07T15:28:44.216Z,100934.38
2022-11-07T15:31:25.221Z,100937.00
2022-11-07T15:33:54.085Z,100938.00
2022-11-07T15:36:22.282Z,100937.25
2022-11-07T15:38:51.540Z,100932.91
2022-11-07T15:41:19.420Z,100936.44
2022-11-07T15:43:46.909Z,100927.84
2022-11-07T15:46:32.661Z,100937.34
2022-11-07T15:49:00.149Z,100939.16
2022-11-07T15:51:27.604Z,100945.28
2022-11-07T15:53:55.679Z,100949.63
2022-11-07T15:56:25.538Z,100936.59
2022-11-07T15:58:55.638Z,100932.34
2022-11-07T16:01:23.975Z,100937.50
2022-11-07T16:03:51.638Z,100939.34
2022-11-07T16:06:28.425Z,100941.94
2022-11-07T16:08:56.044Z,100948.91
2022-11-07T16:11:25.426Z,100949.78
2022-11-07T16:13:59.332Z,100946.25
2022-11-07T16:16:35.011Z,100935.81
2022-11-07T16:19:02.542Z,100945.38
2022-11-07T16:21:30.021Z,100947.16
2022-11-07T16:23:57.500Z,100949.63
2022-11-07T16:26:29.917Z,100954.84
2022-11-07T16:28:57.399Z,100952.25
2022-11-07T16:31:25.156Z,100942.69
2022-11-07T16:33:53.655Z,100942.66
2022-11-07T16:36:24.251Z,100941.75
2022-11-07T16:38:52.551Z,100941.75
2022-11-07T16:41:20.693Z,100937.38
2022-11-07T16:43:49.270Z,100943.47
2022-11-07T16:46:21.186Z,100943.41
2022-11-07T16:48:52.315Z,100939.94
2022-11-07T16:51:22.507Z,100948.56
2022-11-07T16:53:50.449Z,100958.16
2022-11-07T16:56:25.659Z,100945.88
2022-11-07T16:58:54.369Z,100942.31
2022-11-07T17:01:23.344Z,100941.38
2022-11-07T17:03:51.105Z,100935.28
2022-11-07T17:06:28.485Z,100936.16
2022-11-07T17:09:01.199Z,100940.50
2022-11-07T17:11:33.560Z,100933.53
2022-11-07T17:14:01.265Z,100943.94
2022-11-07T17:16:34.635Z,100934.34
2022-11-07T17:19:02.383Z,100933.47
2022-11-07T17:21:32.720Z,100940.41
2022-11-07T17:24:01.765Z,100932.56
2022-11-07T17:26:35.681Z,100941.25
2022-11-07T17:29:04.871Z,100941.25
2022-11-07T17:31:32.479Z,100939.47
2022-11-07T17:33:59.946Z,100935.06
2022-11-07T17:36:46.188Z,100943.78
2022-11-07T17:39:19.981Z,100923.66
2022-11-07T17:41:49.879Z,100937.59
2022-11-07T17:44:18.521Z,100945.41
2022-11-07T17:46:48.756Z,100930.56
2022-11-07T17:49:18.977Z,100948.84
2022-11-07T17:51:47.095Z,100945.38
2022-11-07T17:54:16.211Z,100944.53
2022-11-07T17:56:44.201Z,100943.56
2022-11-07T17:59:16.792Z,100947.06
2022-11-07T18:01:45.053Z,100939.25
2022-11-07T18:04:13.867Z,100950.47
2022-11-07T18:06:43.286Z,100936.63
2022-11-07T18:09:15.003Z,100946.97
2022-11-07T18:11:42.682Z,100932.16
2022-11-07T18:14:11.710Z,100940.00
2022-11-07T18:16:39.167Z,100946.91
2022-11-07T18:19:07.295Z,100949.56
2022-11-07T18:21:34.772Z,100944.38
2022-11-07T18:24:02.265Z,100941.84
2022-11-07T18:26:33.146Z,100943.63
2022-11-07T18:29:07.069Z,100954.97
2022-11-07T18:31:34.890Z,100948.94
2022-11-07T18:34:05.596Z,100945.50
2022-11-07T18:36:37.015Z,100942.06
2022-11-07T18:39:07.721Z,100944.72
2022-11-07T18:41:35.918Z,100941.31
2022-11-07T18:44:05.042Z,100945.72
2022-11-07T18:46:33.264Z,100944.09
2022-11-07T18:49:00.776Z,100954.59
2022-11-07T18:51:28.475Z,100951.13
2022-11-07T18:53:56.378Z,100953.88
2022-11-07T18:56:23.906Z,100945.19
2022-11-07T18:58:51.334Z,100951.31
2022-11-07T19:01:21.779Z,100941.78
2022-11-07T19:03:49.292Z,100942.66
2022-11-07T19:06:19.270Z,100949.59
2022-11-07T19:08:48.276Z,100947.00
2022-11-07T19:11:20.616Z,100952.22
2022-11-07T19:13:48.481Z,100958.31
2022-11-07T19:16:18.700Z,100950.50
2022-11-07T19:18:49.626Z,100953.16
2022-11-07T19:21:20.562Z,100948.88
2022-11-07T19:23:50.054Z,100951.38
2022-11-07T19:26:18.985Z,100942.69
2022-11-07T19:28:46.952Z,100950.50
2022-11-07T19:31:14.834Z,100961.81
2022-11-07T19:33:42.954Z,100953.13
2022-11-07T19:36:16.460Z,100949.66
2022-11-07T19:38:44.594Z,100946.22
2022-11-07T19:41:13.831Z,100949.66
2022-11-07T19:43:42.591Z,100945.34
2022-11-07T19:46:14.926Z,100940.09
2022-11-07T19:48:42.778Z,100946.16
2022-11-07T19:51:20.977Z,100940.09
2022-11-07T19:53:53.727Z,100940.94
2022-11-07T19:56:21.238Z,100935.72
2022-11-07T19:58:48.771Z,100949.63
2022-11-07T20:01:21.536Z,100943.59
2022-11-07T20:03:51.971Z,100939.22
2022-11-07T20:06:23.394Z,100945.34
2022-11-07T20:08:51.473Z,100947.91
2022-11-07T20:11:24.994Z,100944.41
2022-11-07T20:14:00.241Z,100944.44
2022-11-07T20:16:30.512Z,100948.75
2022-11-07T20:18:59.162Z,100947.78
2022-11-07T20:21:28.974Z,100955.59
2022-11-07T20:23:59.299Z,100957.28
2022-11-07T20:26:28.998Z,100952.84
2022-11-07T20:28:56.513Z,100952.00
2022-11-07T20:31:27.348Z,100955.44
2022-11-07T20:33:55.378Z,100964.16
2022-11-07T20:36:22.950Z,100958.06
2022-11-07T20:38:50.482Z,100960.63
2022-11-07T20:41:17.999Z,100964.91
2022-11-07T20:43:45.522Z,100973.56
2022-11-07T20:46:16.365Z,100959.69
2022-11-07T20:48:44.190Z,100968.34
2022-11-07T20:51:16.899Z,100962.22
2022-11-07T20:53:49.782Z,100955.22
2022-11-07T20:56:21.690Z,100961.31
2022-11-07T20:58:49.969Z,100968.25
2022-11-07T21:01:38.313Z,100974.34
2022-11-07T21:04:11.665Z,100968.25
2022-11-07T21:06:39.160Z,100961.28
2022-11-07T21:09:07.372Z,100964.81
2022-11-07T21:11:35.854Z,100968.28
2022-11-07T21:14:03.446Z,100960.47
2022-11-07T21:16:34.466Z,100958.75
2022-11-07T21:19:02.473Z,100961.34
2022-11-07T21:21:32.527Z,100950.94
2022-11-07T21:24:00.659Z,100967.44
2022-11-07T21:26:35.469Z,100960.47
2022-11-07T21:29:06.404Z,100963.94
2022-11-07T21:31:35.576Z,100964.75
2022-11-07T21:34:03.098Z,100959.59
2022-11-07T21:36:32.005Z,100963.06
2022-11-07T21:39:01.376Z,100961.31
2022-11-07T21:41:30.311Z,100953.47
2022-11-07T21:43:58.979Z,100942.13
2022-11-07T21:46:29.036Z,100951.72
2022-11-07T21:48:57.424Z,100952.59
2022-11-07T21:51:27.436Z,100944.75
2022-11-07T21:53:55.909Z,100943.84
2022-11-07T21:56:34.152Z,100936.00
2022-11-07T21:59:04.586Z,100937.72
2022-11-07T22:01:34.795Z,100942.09
2022-11-07T22:04:07.393Z,100941.22
2022-11-07T22:06:39.003Z,100940.38
2022-11-07T22:09:08.753Z,100941.22
2022-11-07T22:11:36.570Z,100937.69
2022-11-07T22:14:04.582Z,100940.31
2022-11-07T22:16:32.555Z,100935.16
2022-11-07T22:19:00.992Z,100935.97
2022-11-07T22:21:30.532Z,100938.59
2022-11-07T22:23:58.778Z,100937.66
2022-11-07T22:26:28.123Z,100931.56
2022-11-07T22:28:56.138Z,100915.94
2022-11-07T22:31:25.496Z,100942.94
2022-11-07T22:33:54.292Z,100922.00
2022-11-07T22:36:22.644Z,100932.44
2022-11-07T22:38:51.169Z,100923.75
2022-11-07T22:41:22.328Z,100935.06
2022-11-07T22:43:50.561Z,100934.22
2022-11-07T22:46:20.895Z,100925.53
2022-11-07T22:48:51.421Z,100915.19
2022-11-07T22:51:22.006Z,100914.28
2022-11-07T22:53:55.822Z,100900.41
2022-11-07T22:56:23.535Z,100916.00
2022-11-07T22:58:51.270Z,100923.03
2022-11-07T23:01:30.972Z,100912.56
2022-11-07T23:03:59.409Z,100903.88
2022-11-07T23:06:29.067Z,100901.38
2022-11-07T23:08:58.808Z,100909.19
2022-11-07T23:11:47.170Z,100909.28
2022-11-07T23:14:18.801Z,100904.97
2022-11-07T23:16:49.092Z,100898.03
2022-11-07T23:19:18.778Z,100894.56
2022-11-07T23:21:46.498Z,100891.13
2022-11-07T23:24:14.657Z,100891.22
2022-11-07T23:26:42.433Z,100892.97
2022-11-07T23:29:16.293Z,100836.84
2022-11-07T23:31:47.275Z,100891.22
2022-11-07T23:34:15.974Z,100888.66
2022-11-07T23:36:44.958Z,100893.84
2022-11-07T23:39:18.054Z,100888.66
2022-11-07T23:41:46.416Z,100886.97
2022-11-07T23:44:14.966Z,100887.06
2022-11-07T23:47:00.548Z,100883.66
2022-11-07T23:49:51.198Z,100881.16
2022-11-07T23:52:19.368Z,100887.34
2022-11-07T23:55:04.366Z,100889.19
2022-11-07T23:57:55.294Z,100888.38
